sensor_id;sensor_type;location;lat;lon;timestamp;P1;durP1;ratioP1;P2;durP2;ratioP2
6388;SDS011;3227;42.654;23.360;2023-03-11T00:00:34;14.03;;;10.10;;
6388;SDS011;3227;42.654;23.360;2023-03-11T00:03:04;15.30;;;9.80;;
6388;SDS011;3227;42.654;23.360;2023-03-11T00:05:32;13.70;;;9.53;;
6388;SDS011;3227;42.654;23.360;2023-03-11T00:08:00;12.43;;;9.30;;
6388;SDS011;3227;42.654;23.360;2023-03-11T00:10:29;11.53;;;7.67;;
6388;SDS011;3227;42.654;23.360;2023-03-11T00:12:57;8.67;;;5.63;;
6388;SDS011;3227;42.654;23.360;2023-03-11T00:15:25;7.23;;;4.20;;
6388;SDS011;3227;42.654;23.360;2023-03-11T00:17:53;6.07;;;3.90;;
6388;SDS011;3227;42.654;23.360;2023-03-11T00:20:22;4.40;;;2.40;;
6388;SDS011;3227;42.654;23.360;2023-03-11T00:22:51;4.77;;;2.80;;
6388;SDS011;3227;42.654;23.360;2023-03-11T00:25:19;5.03;;;2.50;;
6388;SDS011;3227;42.654;23.360;2023-03-11T00:27:46;5.17;;;2.60;;
6388;SDS011;3227;42.654;23.360;2023-03-11T00:30:13;3.97;;;2.40;;
6388;SDS011;3227;42.654;23.360;2023-03-11T00:32:41;5.27;;;2.50;;
6388;SDS011;3227;42.654;23.360;2023-03-11T00:35:09;3.10;;;1.83;;
6388;SDS011;3227;42.654;23.360;2023-03-11T00:37:44;2.93;;;1.83;;
6388;SDS011;3227;42.654;23.360;2023-03-11T00:40:13;4.53;;;2.10;;
6388;SDS011;3227;42.654;23.360;2023-03-11T00:42:41;2.53;;;1.83;;
6388;SDS011;3227;42.654;23.360;2023-03-11T00:45:09;2.07;;;1.50;;
6388;SDS011;3227;42.654;23.360;2023-03-11T00:47:36;2.07;;;1.63;;
6388;SDS011;3227;42.654;23.360;2023-03-11T00:50:04;4.37;;;1.80;;
6388;SDS011;3227;42.654;23.360;2023-03-11T00:52:32;7.30;;;4.10;;
6388;SDS011;3227;42.654;23.360;2023-03-11T00:55:00;6.03;;;3.17;;
6388;SDS011;3227;42.654;23.360;2023-03-11T00:57:27;4.73;;;2.50;;
6388;SDS011;3227;42.654;23.360;2023-03-11T00:59:54;3.03;;;1.83;;
6388;SDS011;3227;42.654;23.360;2023-03-11T01:02:23;3.37;;;1.70;;
6388;SDS011;3227;42.654;23.360;2023-03-11T01:04:52;3.73;;;1.73;;
6388;SDS011;3227;42.654;23.360;2023-03-11T01:07:19;2.70;;;1.70;;
6388;SDS011;3227;42.654;23.360;2023-03-11T01:09:46;3.87;;;1.87;;
6388;SDS011;3227;42.654;23.360;2023-03-11T01:12:14;3.47;;;2.00;;
6388;SDS011;3227;42.654;23.360;2023-03-11T01:14:41;3.60;;;2.00;;
6388;SDS011;3227;42.654;23.360;2023-03-11T01:17:08;3.07;;;2.10;;
6388;SDS011;3227;42.654;23.360;2023-03-11T01:19:35;3.80;;;2.03;;
6388;SDS011;3227;42.654;23.360;2023-03-11T01:22:02;2.60;;;1.80;;
6388;SDS011;3227;42.654;23.360;2023-03-11T01:24:29;5.70;;;2.10;;
6388;SDS011;3227;42.654;23.360;2023-03-11T01:26:55;3.77;;;1.83;;
6388;SDS011;3227;42.654;23.360;2023-03-11T01:29:24;2.63;;;1.70;;
6388;SDS011;3227;42.654;23.360;2023-03-11T01:31:50;2.83;;;1.80;;
6388;SDS011;3227;42.654;23.360;2023-03-11T01:34:17;3.40;;;1.80;;
6388;SDS011;3227;42.654;23.360;2023-03-11T01:36:44;4.13;;;1.77;;
6388;SDS011;3227;42.654;23.360;2023-03-11T01:39:11;3.03;;;1.80;;
6388;SDS011;3227;42.654;23.360;2023-03-11T01:41:38;3.47;;;1.90;;
6388;SDS011;3227;42.654;23.360;2023-03-11T01:44:05;3.07;;;1.70;;
6388;SDS011;3227;42.654;23.360;2023-03-11T01:46:35;2.33;;;1.63;;
6388;SDS011;3227;42.654;23.360;2023-03-11T01:49:24;2.37;;;1.60;;
6388;SDS011;3227;42.654;23.360;2023-03-11T01:51:52;3.23;;;1.80;;
6388;SDS011;3227;42.654;23.360;2023-03-11T01:54:22;3.03;;;1.70;;
6388;SDS011;3227;42.654;23.360;2023-03-11T01:56:52;4.13;;;1.87;;
6388;SDS011;3227;42.654;23.360;2023-03-11T01:59:21;4.37;;;1.80;;
6388;SDS011;3227;42.654;23.360;2023-03-11T02:01:54;3.13;;;1.70;;
6388;SDS011;3227;42.654;23.360;2023-03-11T02:04:27;3.10;;;1.80;;
6388;SDS011;3227;42.654;23.360;2023-03-11T02:06:54;3.30;;;2.10;;
6388;SDS011;3227;42.654;23.360;2023-03-11T02:09:27;2.87;;;2.20;;
6388;SDS011;3227;42.654;23.360;2023-03-11T02:11:54;4.13;;;2.33;;
6388;SDS011;3227;42.654;23.360;2023-03-11T02:14:22;4.60;;;2.47;;
6388;SDS011;3227;42.654;23.360;2023-03-11T02:16:49;4.63;;;2.60;;
6388;SDS011;3227;42.654;23.360;2023-03-11T02:19:21;4.60;;;2.50;;
6388;SDS011;3227;42.654;23.360;2023-03-11T02:21:52;4.90;;;2.60;;
6388;SDS011;3227;42.654;23.360;2023-03-11T02:24:20;7.67;;;3.00;;
6388;SDS011;3227;42.654;23.360;2023-03-11T02:26:55;4.80;;;2.77;;
6388;SDS011;3227;42.654;23.360;2023-03-11T02:29:23;5.70;;;3.10;;
6388;SDS011;3227;42.654;23.360;2023-03-11T02:31:53;6.10;;;3.00;;
6388;SDS011;3227;42.654;23.360;2023-03-11T02:34:22;5.33;;;3.57;;
6388;SDS011;3227;42.654;23.360;2023-03-11T02:36:50;6.53;;;3.53;;
6388;SDS011;3227;42.654;23.360;2023-03-11T02:39:27;6.97;;;3.57;;
6388;SDS011;3227;42.654;23.360;2023-03-11T02:41:56;7.17;;;3.47;;
6388;SDS011;3227;42.654;23.360;2023-03-11T02:44:24;7.50;;;3.83;;
6388;SDS011;3227;42.654;23.360;2023-03-11T02:46:52;6.37;;;3.57;;
6388;SDS011;3227;42.654;23.360;2023-03-11T02:49:19;6.40;;;3.57;;
6388;SDS011;3227;42.654;23.360;2023-03-11T02:51:47;7.33;;;3.63;;
6388;SDS011;3227;42.654;23.360;2023-03-11T02:54:14;7.43;;;3.97;;
6388;SDS011;3227;42.654;23.360;2023-03-11T02:56:41;9.00;;;4.50;;
6388;SDS011;3227;42.654;23.360;2023-03-11T02:59:09;8.47;;;4.83;;
6388;SDS011;3227;42.654;23.360;2023-03-11T03:01:36;7.33;;;4.47;;
6388;SDS011;3227;42.654;23.360;2023-03-11T03:04:03;8.93;;;5.10;;
6388;SDS011;3227;42.654;23.360;2023-03-11T03:06:30;7.60;;;4.83;;
6388;SDS011;3227;42.654;23.360;2023-03-11T03:09:11;8.40;;;4.60;;
6388;SDS011;3227;42.654;23.360;2023-03-11T03:11:38;7.20;;;4.87;;
6388;SDS011;3227;42.654;23.360;2023-03-11T03:14:05;7.33;;;4.80;;
6388;SDS011;3227;42.654;23.360;2023-03-11T03:16:33;7.43;;;4.97;;
6388;SDS011;3227;42.654;23.360;2023-03-11T03:19:00;7.53;;;4.77;;
6388;SDS011;3227;42.654;23.360;2023-03-11T03:21:27;6.57;;;4.33;;
6388;SDS011;3227;42.654;23.360;2023-03-11T03:23:53;7.63;;;3.90;;
6388;SDS011;3227;42.654;23.360;2023-03-11T03:26:20;6.50;;;3.83;;
6388;SDS011;3227;42.654;23.360;2023-03-11T03:28:47;5.50;;;3.20;;
6388;SDS011;3227;42.654;23.360;2023-03-11T03:31:14;6.03;;;3.30;;
6388;SDS011;3227;42.654;23.360;2023-03-11T03:33:42;5.00;;;3.20;;
6388;SDS011;3227;42.654;23.360;2023-03-11T03:36:10;5.93;;;3.07;;
6388;SDS011;3227;42.654;23.360;2023-03-11T03:38:38;6.33;;;3.20;;
6388;SDS011;3227;42.654;23.360;2023-03-11T03:41:05;5.80;;;3.10;;
6388;SDS011;3227;42.654;23.360;2023-03-11T03:43:32;5.43;;;3.20;;
6388;SDS011;3227;42.654;23.360;2023-03-11T03:46:00;4.67;;;3.00;;
6388;SDS011;3227;42.654;23.360;2023-03-11T03:48:28;6.27;;;3.10;;
6388;SDS011;3227;42.654;23.360;2023-03-11T03:50:57;4.67;;;2.90;;
6388;SDS011;3227;42.654;23.360;2023-03-11T03:53:28;4.30;;;2.30;;
6388;SDS011;3227;42.654;23.360;2023-03-11T03:55:55;4.70;;;2.87;;
6388;SDS011;3227;42.654;23.360;2023-03-11T03:58:22;5.03;;;2.73;;
6388;SDS011;3227;42.654;23.360;2023-03-11T04:00:48;3.80;;;2.70;;
6388;SDS011;3227;42.654;23.360;2023-03-11T04:03:20;6.33;;;3.03;;
6388;SDS011;3227;42.654;23.360;2023-03-11T04:05:47;4.50;;;2.77;;
6388;SDS011;3227;42.654;23.360;2023-03-11T04:08:15;5.87;;;3.20;;
6388;SDS011;3227;42.654;23.360;2023-03-11T04:10:42;7.10;;;4.00;;
6388;SDS011;3227;42.654;23.360;2023-03-11T04:13:09;7.13;;;3.80;;
6388;SDS011;3227;42.654;23.360;2023-03-11T04:15:36;11.10;;;4.40;;
6388;SDS011;3227;42.654;23.360;2023-03-11T04:18:04;9.33;;;4.17;;
6388;SDS011;3227;42.654;23.360;2023-03-11T04:20:31;6.30;;;4.00;;
6388;SDS011;3227;42.654;23.360;2023-03-11T04:22:58;5.73;;;3.53;;
6388;SDS011;3227;42.654;23.360;2023-03-11T04:25:26;5.40;;;3.20;;
6388;SDS011;3227;42.654;23.360;2023-03-11T04:27:53;4.73;;;3.00;;
6388;SDS011;3227;42.654;23.360;2023-03-11T04:30:19;5.30;;;3.23;;
6388;SDS011;3227;42.654;23.360;2023-03-11T04:32:47;5.77;;;3.60;;
6388;SDS011;3227;42.654;23.360;2023-03-11T04:35:13;5.00;;;3.07;;
6388;SDS011;3227;42.654;23.360;2023-03-11T04:44:25;5.20;;;3.27;;
6388;SDS011;3227;42.654;23.360;2023-03-11T04:46:52;4.20;;;2.60;;
6388;SDS011;3227;42.654;23.360;2023-03-11T04:49:18;5.77;;;2.87;;
6388;SDS011;3227;42.654;23.360;2023-03-11T04:51:45;7.30;;;2.93;;
6388;SDS011;3227;42.654;23.360;2023-03-11T04:54:12;5.00;;;2.80;;
6388;SDS011;3227;42.654;23.360;2023-03-11T04:56:39;5.50;;;3.37;;
6388;SDS011;3227;42.654;23.360;2023-03-11T04:59:06;5.50;;;3.07;;
6388;SDS011;3227;42.654;23.360;2023-03-11T05:01:34;8.77;;;4.13;;
6388;SDS011;3227;42.654;23.360;2023-03-11T05:04:01;5.33;;;3.17;;
6388;SDS011;3227;42.654;23.360;2023-03-11T05:06:28;5.50;;;3.00;;
6388;SDS011;3227;42.654;23.360;2023-03-11T05:08:55;6.10;;;3.40;;
6388;SDS011;3227;42.654;23.360;2023-03-11T05:11:23;6.00;;;3.30;;
6388;SDS011;3227;42.654;23.360;2023-03-11T05:13:49;6.57;;;2.73;;
6388;SDS011;3227;42.654;23.360;2023-03-11T05:16:16;5.70;;;3.13;;
6388;SDS011;3227;42.654;23.360;2023-03-11T05:21:52;3.83;;;2.00;;
6388;SDS011;3227;42.654;23.360;2023-03-11T05:24:19;2.80;;;1.90;;
6388;SDS011;3227;42.654;23.360;2023-03-11T05:26:45;2.17;;;1.70;;
6388;SDS011;3227;42.654;23.360;2023-03-11T05:29:12;1.87;;;1.60;;
6388;SDS011;3227;42.654;23.360;2023-03-11T05:31:39;3.57;;;1.90;;
6388;SDS011;3227;42.654;23.360;2023-03-11T05:34:07;2.57;;;1.80;;
6388;SDS011;3227;42.654;23.360;2023-03-11T05:36:34;3.27;;;1.80;;
6388;SDS011;3227;42.654;23.360;2023-03-11T05:39:01;1.97;;;1.50;;
6388;SDS011;3227;42.654;23.360;2023-03-11T05:41:28;2.97;;;1.60;;
6388;SDS011;3227;42.654;23.360;2023-03-11T05:43:55;1.70;;;1.50;;
6388;SDS011;3227;42.654;23.360;2023-03-11T05:46:21;1.53;;;1.40;;
6388;SDS011;3227;42.654;23.360;2023-03-11T05:48:48;2.10;;;1.63;;
6388;SDS011;3227;42.654;23.360;2023-03-11T05:51:16;2.70;;;1.67;;
6388;SDS011;3227;42.654;23.360;2023-03-11T05:53:44;2.67;;;1.70;;
6388;SDS011;3227;42.654;23.360;2023-03-11T05:56:12;3.17;;;1.70;;
6388;SDS011;3227;42.654;23.360;2023-03-11T05:58:40;1.70;;;1.40;;
6388;SDS011;3227;42.654;23.360;2023-03-11T06:01:07;2.57;;;1.60;;
6388;SDS011;3227;42.654;23.360;2023-03-11T06:03:35;1.97;;;1.50;;
6388;SDS011;3227;42.654;23.360;2023-03-11T06:06:03;3.40;;;2.00;;
6388;SDS011;3227;42.654;23.360;2023-03-11T06:08:32;1.83;;;1.50;;
6388;SDS011;3227;42.654;23.360;2023-03-11T06:10:59;1.40;;;1.30;;
6388;SDS011;3227;42.654;23.360;2023-03-11T06:13:27;1.70;;;1.60;;
6388;SDS011;3227;42.654;23.360;2023-03-11T06:15:54;1.43;;;1.30;;
6388;SDS011;3227;42.654;23.360;2023-03-11T06:18:20;2.50;;;1.47;;
6388;SDS011;3227;42.654;23.360;2023-03-11T06:20:47;2.20;;;1.60;;
6388;SDS011;3227;42.654;23.360;2023-03-11T06:23:14;1.50;;;1.40;;
6388;SDS011;3227;42.654;23.360;2023-03-11T06:25:42;1.70;;;1.47;;
6388;SDS011;3227;42.654;23.360;2023-03-11T06:28:11;2.50;;;1.50;;
6388;SDS011;3227;42.654;23.360;2023-03-11T06:30:38;1.50;;;1.40;;
6388;SDS011;3227;42.654;23.360;2023-03-11T06:33:05;2.03;;;1.60;;
6388;SDS011;3227;42.654;23.360;2023-03-11T06:35:31;2.53;;;1.57;;
6388;SDS011;3227;42.654;23.360;2023-03-11T06:37:58;1.90;;;1.50;;
6388;SDS011;3227;42.654;23.360;2023-03-11T06:40:25;1.20;;;1.20;;
6388;SDS011;3227;42.654;23.360;2023-03-11T06:42:53;1.73;;;1.43;;
6388;SDS011;3227;42.654;23.360;2023-03-11T06:45:20;2.53;;;1.70;;
6388;SDS011;3227;42.654;23.360;2023-03-11T06:47:47;2.70;;;1.47;;
6388;SDS011;3227;42.654;23.360;2023-03-11T06:50:14;2.47;;;1.60;;
6388;SDS011;3227;42.654;23.360;2023-03-11T06:52:41;1.70;;;1.50;;
6388;SDS011;3227;42.654;23.360;2023-03-11T06:55:08;1.50;;;1.40;;
6388;SDS011;3227;42.654;23.360;2023-03-11T06:57:35;2.03;;;1.50;;
6388;SDS011;3227;42.654;23.360;2023-03-11T07:00:04;2.20;;;1.50;;
6388;SDS011;3227;42.654;23.360;2023-03-11T07:02:36;2.60;;;1.60;;
6388;SDS011;3227;42.654;23.360;2023-03-11T07:05:03;3.87;;;1.63;;
6388;SDS011;3227;42.654;23.360;2023-03-11T07:07:31;1.73;;;1.50;;
6388;SDS011;3227;42.654;23.360;2023-03-11T07:09:58;4.27;;;1.60;;
6388;SDS011;3227;42.654;23.360;2023-03-11T07:12:24;1.50;;;1.40;;
6388;SDS011;3227;42.654;23.360;2023-03-11T07:14:53;2.83;;;1.50;;
6388;SDS011;3227;42.654;23.360;2023-03-11T07:17:22;2.00;;;1.37;;
6388;SDS011;3227;42.654;23.360;2023-03-11T07:19:50;1.90;;;1.50;;
6388;SDS011;3227;42.654;23.360;2023-03-11T07:22:17;1.33;;;1.23;;
6388;SDS011;3227;42.654;23.360;2023-03-11T07:24:45;1.87;;;1.40;;
6388;SDS011;3227;42.654;23.360;2023-03-11T07:27:14;2.60;;;1.50;;
6388;SDS011;3227;42.654;23.360;2023-03-11T07:29:41;3.23;;;1.70;;
6388;SDS011;3227;42.654;23.360;2023-03-11T07:32:08;3.63;;;1.60;;
6388;SDS011;3227;42.654;23.360;2023-03-11T07:34:36;1.93;;;1.50;;
6388;SDS011;3227;42.654;23.360;2023-03-11T07:37:04;2.40;;;1.53;;
6388;SDS011;3227;42.654;23.360;2023-03-11T07:39:31;7.43;;;1.60;;
6388;SDS011;3227;42.654;23.360;2023-03-11T07:41:57;2.63;;;1.50;;
6388;SDS011;3227;42.654;23.360;2023-03-11T07:44:24;3.77;;;1.93;;
6388;SDS011;3227;42.654;23.360;2023-03-11T07:46:51;2.47;;;1.60;;
6388;SDS011;3227;42.654;23.360;2023-03-11T07:49:18;2.63;;;1.77;;
6388;SDS011;3227;42.654;23.360;2023-03-11T07:51:46;2.87;;;1.60;;
6388;SDS011;3227;42.654;23.360;2023-03-11T07:54:13;2.47;;;1.70;;
6388;SDS011;3227;42.654;23.360;2023-03-11T07:56:39;2.90;;;1.60;;
6388;SDS011;3227;42.654;23.360;2023-03-11T07:59:06;2.90;;;1.67;;
6388;SDS011;3227;42.654;23.360;2023-03-11T08:01:33;2.33;;;1.60;;
6388;SDS011;3227;42.654;23.360;2023-03-11T08:04:05;2.53;;;1.50;;
6388;SDS011;3227;42.654;23.360;2023-03-11T08:06:33;8.67;;;1.87;;
6388;SDS011;3227;42.654;23.360;2023-03-11T08:09:03;6.23;;;2.53;;
6388;SDS011;3227;42.654;23.360;2023-03-11T08:11:31;3.83;;;2.17;;
6388;SDS011;3227;42.654;23.360;2023-03-11T08:13:58;1.80;;;1.60;;
6388;SDS011;3227;42.654;23.360;2023-03-11T08:16:25;2.83;;;1.60;;
6388;SDS011;3227;42.654;23.360;2023-03-11T08:18:53;5.63;;;1.90;;
6388;SDS011;3227;42.654;23.360;2023-03-11T08:21:21;2.77;;;1.77;;
6388;SDS011;3227;42.654;23.360;2023-03-11T08:23:49;5.37;;;1.73;;
6388;SDS011;3227;42.654;23.360;2023-03-11T08:26:19;5.10;;;1.70;;
6388;SDS011;3227;42.654;23.360;2023-03-11T08:28:47;3.43;;;1.70;;
6388;SDS011;3227;42.654;23.360;2023-03-11T08:31:14;3.60;;;1.60;;
6388;SDS011;3227;42.654;23.360;2023-03-11T08:33:43;3.13;;;1.50;;
6388;SDS011;3227;42.654;23.360;2023-03-11T08:36:10;3.83;;;1.67;;
6388;SDS011;3227;42.654;23.360;2023-03-11T08:38:37;4.73;;;1.77;;
6388;SDS011;3227;42.654;23.360;2023-03-11T08:41:04;4.67;;;2.00;;
6388;SDS011;3227;42.654;23.360;2023-03-11T08:43:32;8.40;;;2.00;;
6388;SDS011;3227;42.654;23.360;2023-03-11T08:45:59;6.73;;;1.87;;
6388;SDS011;3227;42.654;23.360;2023-03-11T08:48:27;6.40;;;2.03;;
6388;SDS011;3227;42.654;23.360;2023-03-11T08:50:54;6.43;;;1.80;;
6388;SDS011;3227;42.654;23.360;2023-03-11T08:53:21;8.20;;;1.70;;
6388;SDS011;3227;42.654;23.360;2023-03-11T08:55:48;4.93;;;1.60;;
6388;SDS011;3227;42.654;23.360;2023-03-11T08:58:15;3.23;;;1.60;;
6388;SDS011;3227;42.654;23.360;2023-03-11T09:00:43;5.40;;;1.80;;
6388;SDS011;3227;42.654;23.360;2023-03-11T09:03:10;4.03;;;1.67;;
6388;SDS011;3227;42.654;23.360;2023-03-11T09:05:37;5.70;;;2.20;;
6388;SDS011;3227;42.654;23.360;2023-03-11T09:08:04;5.90;;;2.13;;
6388;SDS011;3227;42.654;23.360;2023-03-11T09:10:31;4.70;;;2.27;;
6388;SDS011;3227;42.654;23.360;2023-03-11T09:12:58;4.30;;;1.73;;
6388;SDS011;3227;42.654;23.360;2023-03-11T09:15:25;9.07;;;1.70;;
6388;SDS011;3227;42.654;23.360;2023-03-11T09:17:53;6.03;;;2.00;;
6388;SDS011;3227;42.654;23.360;2023-03-11T09:20:21;6.43;;;1.90;;
6388;SDS011;3227;42.654;23.360;2023-03-11T09:22:48;5.27;;;1.97;;
6388;SDS011;3227;42.654;23.360;2023-03-11T09:25:14;4.90;;;1.80;;
6388;SDS011;3227;42.654;23.360;2023-03-11T09:27:41;8.53;;;1.90;;
6388;SDS011;3227;42.654;23.360;2023-03-11T09:30:09;2.97;;;1.73;;
6388;SDS011;3227;42.654;23.360;2023-03-11T09:32:36;4.80;;;1.90;;
6388;SDS011;3227;42.654;23.360;2023-03-11T09:35:05;4.80;;;1.97;;
6388;SDS011;3227;42.654;23.360;2023-03-11T09:37:32;7.27;;;2.10;;
6388;SDS011;3227;42.654;23.360;2023-03-11T09:39:59;4.73;;;2.00;;
6388;SDS011;3227;42.654;23.360;2023-03-11T09:42:26;4.37;;;2.00;;
6388;SDS011;3227;42.654;23.360;2023-03-11T09:45:03;2.70;;;2.07;;
6388;SDS011;3227;42.654;23.360;2023-03-11T09:47:37;5.23;;;2.00;;
6388;SDS011;3227;42.654;23.360;2023-03-11T09:50:21;3.77;;;1.67;;
6388;SDS011;3227;42.654;23.360;2023-03-11T09:53:02;4.13;;;1.80;;
6388;SDS011;3227;42.654;23.360;2023-03-11T09:55:40;4.27;;;2.00;;
6388;SDS011;3227;42.654;23.360;2023-03-11T09:58:11;6.47;;;1.93;;
6388;SDS011;3227;42.654;23.360;2023-03-11T10:00:42;5.10;;;2.00;;
6388;SDS011;3227;42.654;23.360;2023-03-11T10:03:25;4.63;;;1.90;;
6388;SDS011;3227;42.654;23.360;2023-03-11T10:06:16;6.37;;;1.90;;
6388;SDS011;3227;42.654;23.360;2023-03-11T10:08:48;4.13;;;1.80;;
6388;SDS011;3227;42.654;23.360;2023-03-11T10:11:26;6.20;;;1.67;;
6388;SDS011;3227;42.654;23.360;2023-03-11T10:14:04;3.77;;;1.57;;
6388;SDS011;3227;42.654;23.360;2023-03-11T10:16:42;6.53;;;1.80;;
6388;SDS011;3227;42.654;23.360;2023-03-11T10:19:21;6.77;;;1.80;;
6388;SDS011;3227;42.654;23.360;2023-03-11T10:22:01;3.20;;;1.83;;
6388;SDS011;3227;42.654;23.360;2023-03-11T10:24:37;3.07;;;1.77;;
6388;SDS011;3227;42.654;23.360;2023-03-11T10:27:16;4.93;;;2.00;;
6388;SDS011;3227;42.654;23.360;2023-03-11T10:29:49;8.87;;;2.07;;
6388;SDS011;3227;42.654;23.360;2023-03-11T10:32:21;5.30;;;2.00;;
6388;SDS011;3227;42.654;23.360;2023-03-11T10:34:54;4.30;;;1.73;;
6388;SDS011;3227;42.654;23.360;2023-03-11T10:37:26;8.83;;;1.90;;
6388;SDS011;3227;42.654;23.360;2023-03-11T10:39:58;4.77;;;1.70;;
6388;SDS011;3227;42.654;23.360;2023-03-11T10:42:34;3.83;;;1.90;;
6388;SDS011;3227;42.654;23.360;2023-03-11T10:45:03;4.90;;;2.00;;
6388;SDS011;3227;42.654;23.360;2023-03-11T10:47:31;8.00;;;2.00;;
6388;SDS011;3227;42.654;23.360;2023-03-11T10:49:58;3.97;;;2.00;;
6388;SDS011;3227;42.654;23.360;2023-03-11T10:52:25;2.50;;;1.50;;
6388;SDS011;3227;42.654;23.360;2023-03-11T10:54:58;3.13;;;1.80;;
6388;SDS011;3227;42.654;23.360;2023-03-11T10:57:27;5.77;;;2.77;;
6388;SDS011;3227;42.654;23.360;2023-03-11T10:59:58;2.00;;;1.50;;
6388;SDS011;3227;42.654;23.360;2023-03-11T11:02:26;4.63;;;1.83;;
6388;SDS011;3227;42.654;23.360;2023-03-11T11:05:05;3.83;;;1.67;;
6388;SDS011;3227;42.654;23.360;2023-03-11T11:07:49;6.23;;;1.70;;
6388;SDS011;3227;42.654;23.360;2023-03-11T11:10:18;3.53;;;1.77;;
6388;SDS011;3227;42.654;23.360;2023-03-11T11:12:53;6.47;;;1.90;;
6388;SDS011;3227;42.654;23.360;2023-03-11T11:15:23;7.22;;;2.08;;
6388;SDS011;3227;42.654;23.360;2023-03-11T11:17:51;5.33;;;1.70;;
6388;SDS011;3227;42.654;23.360;2023-03-11T11:20:21;4.55;;;1.85;;
6388;SDS011;3227;42.654;23.360;2023-03-11T11:22:51;5.03;;;1.70;;
6388;SDS011;3227;42.654;23.360;2023-03-11T11:25:23;3.63;;;1.80;;
6388;SDS011;3227;42.654;23.360;2023-03-11T11:27:54;6.33;;;2.00;;
6388;SDS011;3227;42.654;23.360;2023-03-11T11:30:22;5.47;;;1.90;;
6388;SDS011;3227;42.654;23.360;2023-03-11T11:32:50;3.90;;;1.80;;
6388;SDS011;3227;42.654;23.360;2023-03-11T11:35:18;8.23;;;2.00;;
6388;SDS011;3227;42.654;23.360;2023-03-11T11:37:47;6.47;;;2.00;;
6388;SDS011;3227;42.654;23.360;2023-03-11T11:40:20;3.77;;;2.27;;
6388;SDS011;3227;42.654;23.360;2023-03-11T11:42:51;5.87;;;2.20;;
6388;SDS011;3227;42.654;23.360;2023-03-11T11:45:23;3.67;;;1.90;;
6388;SDS011;3227;42.654;23.360;2023-03-11T11:47:54;5.73;;;2.00;;
6388;SDS011;3227;42.654;23.360;2023-03-11T11:50:25;3.93;;;1.70;;
6388;SDS011;3227;42.654;23.360;2023-03-11T11:53:00;3.23;;;1.80;;
6388;SDS011;3227;42.654;23.360;2023-03-11T11:55:32;3.00;;;1.80;;
6388;SDS011;3227;42.654;23.360;2023-03-11T11:58:01;7.57;;;2.17;;
6388;SDS011;3227;42.654;23.360;2023-03-11T12:00:29;7.43;;;2.30;;
6388;SDS011;3227;42.654;23.360;2023-03-11T12:03:06;6.93;;;2.03;;
6388;SDS011;3227;42.654;23.360;2023-03-11T12:05:48;7.40;;;2.00;;
6388;SDS011;3227;42.654;23.360;2023-03-11T12:08:23;6.82;;;2.30;;
6388;SDS011;3227;42.654;23.360;2023-03-11T12:10:59;5.63;;;2.50;;
6388;SDS011;3227;42.654;23.360;2023-03-11T12:13:35;8.13;;;2.03;;
6388;SDS011;3227;42.654;23.360;2023-03-11T12:16:29;6.63;;;1.87;;
6388;SDS011;3227;42.654;23.360;2023-03-11T12:19:06;4.90;;;2.00;;
6388;SDS011;3227;42.654;23.360;2023-03-11T12:21:53;5.60;;;2.10;;
6388;SDS011;3227;42.654;23.360;2023-03-11T12:24:43;9.98;;;2.15;;
6388;SDS011;3227;42.654;23.360;2023-03-11T12:27:27;8.45;;;2.30;;
6388;SDS011;3227;42.654;23.360;2023-03-11T12:30:00;7.67;;;1.87;;
6388;SDS011;3227;42.654;23.360;2023-03-11T12:32:31;6.70;;;2.10;;
6388;SDS011;3227;42.654;23.360;2023-03-11T12:35:03;6.90;;;2.23;;
6388;SDS011;3227;42.654;23.360;2023-03-11T12:37:44;5.37;;;1.70;;
6388;SDS011;3227;42.654;23.360;2023-03-11T12:43:23;4.13;;;1.90;;
6388;SDS011;3227;42.654;23.360;2023-03-11T12:45:54;5.43;;;1.80;;
6388;SDS011;3227;42.654;23.360;2023-03-11T12:48:24;5.00;;;1.80;;
6388;SDS011;3227;42.654;23.360;2023-03-11T12:50:57;5.28;;;1.80;;
6388;SDS011;3227;42.654;23.360;2023-03-11T12:53:40;3.73;;;1.70;;
6388;SDS011;3227;42.654;23.360;2023-03-11T12:56:09;5.32;;;1.90;;
6388;SDS011;3227;42.654;23.360;2023-03-11T12:58:52;3.33;;;1.63;;
6388;SDS011;3227;42.654;23.360;2023-03-11T13:01:33;4.30;;;1.70;;
6388;SDS011;3227;42.654;23.360;2023-03-11T13:04:13;5.35;;;1.85;;
6388;SDS011;3227;42.654;23.360;2023-03-11T13:09:58;5.57;;;1.70;;
6388;SDS011;3227;42.654;23.360;2023-03-11T13:12:37;7.07;;;2.10;;
6388;SDS011;3227;42.654;23.360;2023-03-11T13:18:03;3.33;;;1.90;;
6388;SDS011;3227;42.654;23.360;2023-03-11T13:20:46;4.00;;;1.80;;
6388;SDS011;3227;42.654;23.360;2023-03-11T13:23:29;5.18;;;2.00;;
6388;SDS011;3227;42.654;23.360;2023-03-11T13:26:12;5.13;;;2.30;;
6388;SDS011;3227;42.654;23.360;2023-03-11T13:32:05;5.37;;;2.10;;
6388;SDS011;3227;42.654;23.360;2023-03-11T13:34:49;6.30;;;2.03;;
6388;SDS011;3227;42.654;23.360;2023-03-11T13:37:28;7.47;;;2.37;;
6388;SDS011;3227;42.654;23.360;2023-03-11T13:40:09;4.63;;;2.07;;
6388;SDS011;3227;42.654;23.360;2023-03-11T13:42:41;3.87;;;1.80;;
6388;SDS011;3227;42.654;23.360;2023-03-11T13:45:14;5.37;;;2.37;;
6388;SDS011;3227;42.654;23.360;2023-03-11T13:47:50;2.50;;;1.70;;
6388;SDS011;3227;42.654;23.360;2023-03-11T13:50:23;6.40;;;2.30;;
6388;SDS011;3227;42.654;23.360;2023-03-11T13:52:53;5.33;;;2.20;;
6388;SDS011;3227;42.654;23.360;2023-03-11T13:55:22;4.00;;;2.03;;
6388;SDS011;3227;42.654;23.360;2023-03-11T13:57:54;7.20;;;2.60;;
6388;SDS011;3227;42.654;23.360;2023-03-11T14:00:23;4.33;;;2.33;;
6388;SDS011;3227;42.654;23.360;2023-03-11T14:02:54;6.10;;;2.93;;
6388;SDS011;3227;42.654;23.360;2023-03-11T14:05:24;6.87;;;3.43;;
6388;SDS011;3227;42.654;23.360;2023-03-11T14:07:52;4.87;;;2.40;;
6388;SDS011;3227;42.654;23.360;2023-03-11T14:10:26;16.67;;;4.83;;
6388;SDS011;3227;42.654;23.360;2023-03-11T14:13:03;7.73;;;2.80;;
6388;SDS011;3227;42.654;23.360;2023-03-11T14:15:50;8.93;;;2.60;;
6388;SDS011;3227;42.654;23.360;2023-03-11T14:18:29;4.57;;;2.30;;
6388;SDS011;3227;42.654;23.360;2023-03-11T14:20:58;4.73;;;2.40;;
6388;SDS011;3227;42.654;23.360;2023-03-11T14:23:27;3.67;;;2.10;;
6388;SDS011;3227;42.654;23.360;2023-03-11T14:25:57;3.50;;;2.00;;
6388;SDS011;3227;42.654;23.360;2023-03-11T14:28:29;4.97;;;2.50;;
6388;SDS011;3227;42.654;23.360;2023-03-11T14:31:00;5.37;;;2.40;;
6388;SDS011;3227;42.654;23.360;2023-03-11T14:33:29;4.77;;;2.43;;
6388;SDS011;3227;42.654;23.360;2023-03-11T14:35:56;4.03;;;2.20;;
6388;SDS011;3227;42.654;23.360;2023-03-11T14:38:26;5.27;;;2.50;;
6388;SDS011;3227;42.654;23.360;2023-03-11T14:40:54;6.23;;;2.53;;
6388;SDS011;3227;42.654;23.360;2023-03-11T14:43:23;4.50;;;2.50;;
6388;SDS011;3227;42.654;23.360;2023-03-11T14:45:50;4.60;;;2.30;;
6388;SDS011;3227;42.654;23.360;2023-03-11T14:48:19;4.30;;;2.50;;
6388;SDS011;3227;42.654;23.360;2023-03-11T14:50:53;3.83;;;2.13;;
6388;SDS011;3227;42.654;23.360;2023-03-11T14:53:23;3.63;;;2.20;;
6388;SDS011;3227;42.654;23.360;2023-03-11T14:55:54;4.13;;;2.37;;
6388;SDS011;3227;42.654;23.360;2023-03-11T14:58:25;5.13;;;2.60;;
6388;SDS011;3227;42.654;23.360;2023-03-11T15:00:59;4.53;;;2.20;;
6388;SDS011;3227;42.654;23.360;2023-03-11T15:03:29;3.80;;;2.17;;
6388;SDS011;3227;42.654;23.360;2023-03-11T15:06:01;5.43;;;2.70;;
6388;SDS011;3227;42.654;23.360;2023-03-11T15:08:33;5.67;;;2.83;;
6388;SDS011;3227;42.654;23.360;2023-03-11T15:11:07;5.53;;;2.60;;
6388;SDS011;3227;42.654;23.360;2023-03-11T15:13:45;6.70;;;2.90;;
6388;SDS011;3227;42.654;23.360;2023-03-11T15:16:22;7.27;;;3.20;;
6388;SDS011;3227;42.654;23.360;2023-03-11T15:18:54;7.27;;;3.00;;
6388;SDS011;3227;42.654;23.360;2023-03-11T15:21:22;8.60;;;4.57;;
6388;SDS011;3227;42.654;23.360;2023-03-11T15:23:51;8.80;;;3.10;;
6388;SDS011;3227;42.654;23.360;2023-03-11T15:26:23;5.03;;;2.70;;
6388;SDS011;3227;42.654;23.360;2023-03-11T15:28:52;5.87;;;2.40;;
6388;SDS011;3227;42.654;23.360;2023-03-11T15:34:10;5.77;;;2.27;;
6388;SDS011;3227;42.654;23.360;2023-03-11T15:39:46;5.50;;;2.70;;
6388;SDS011;3227;42.654;23.360;2023-03-11T15:42:22;6.73;;;3.00;;
6388;SDS011;3227;42.654;23.360;2023-03-11T15:44:58;5.87;;;2.87;;